This is the latest recevied weather packets stored in our database for station/object YN1JLX-13. If no packets are shown the sender has not sent any weather packets the latest 10 day(s).
| Time | Temp. | Humidity | Pressure | Rain* | Wind** | Luminosity | Snow |
|---|---|---|---|---|---|---|---|
| 1777754573 | 28.33° C | 41% | 1007 hPa | 0 mm | - | - | - |
| 1777753972 | 28.89° C | 41% | 1007 hPa | 0 mm | - | - | - |
| 1777753372 | 28.89° C | 41% | 1008 hPa | 0 mm | - | - | - |
| 1777752771 | 28.89° C | 41% | 1008 hPa | 0 mm | - | - | - |
| 1777752171 | 28.89° C | 41% | 1008 hPa | 0 mm | - | - | - |
| 1777751571 | 28.89° C | 41% | 1008 hPa | 0 mm | - | - | - |
| 1777750971 | 28.89° C | 41% | 1008 hPa | 0 mm | - | - | - |
| 1777750370 | 30° C | 41% | 1008 hPa | 0 mm | - | - | - |
| 1777749770 | 26.67° C | 45% | 1009 hPa | 0 mm | - | - | - |
| 1777749170 | 27.78° C | 44% | 1009 hPa | 0 mm | - | - | - |
| 1777748570 | 27.78° C | 44% | 1009 hPa | 0 mm | - | - | - |
| 1777747969 | 28.33° C | 43% | 1009 hPa | 0 mm | - | - | - |
| 1777747369 | 27.78° C | 44% | 1009 hPa | 0 mm | - | - | - |
| 1777746768 | 28.89° C | 44% | 1009 hPa | 0 mm | - | - | - |
| 1777746169 | 26.11° C | 50% | 1010 hPa | 0 mm | - | - | - |
| 1777745568 | 26.11° C | 50% | 1010 hPa | 0 mm | - | - | - |
| 1777744967 | 26.67° C | 50% | 1010 hPa | 0 mm | - | - | - |
| 1777744367 | 27.22° C | 50% | 1010 hPa | 0 mm | - | - | - |
| 1777743767 | 27.22° C | 48% | 1010 hPa | 0 mm | - | - | - |
| 1777743166 | 28.33° C | 48% | 1010 hPa | 0 mm | - | - | - |
| 1777742566 | 25° C | 55% | 1011 hPa | 0 mm | - | - | - |
| 1777741966 | 25.56° C | 55% | 1011 hPa | 0 mm | - | - | - |
| 1777741366 | 26.11° C | 54% | 1011 hPa | 0 mm | - | - | - |
| 1777740766 | 26.11° C | 55% | 1011 hPa | 0 mm | - | - | - |
| 1777740165 | 26.11° C | 55% | 1011 hPa | 0 mm | - | - | - |
* Rain latest hour (hover to see other rain measurements)
** Current wind speed in m/s (hover to see current wind gust speed)